sensor_id;sensor_type;location;lat;lon;timestamp;pressure;altitude;pressure_sealevel;temperature
68127;BMP180;54931;52.098;21.006;2023-04-21T00:01:01;100662.40;;;9.12
68127;BMP180;54931;52.098;21.006;2023-04-21T00:03:30;100661.60;;;9.10
68127;BMP180;54931;52.098;21.006;2023-04-21T00:05:59;100665.80;;;9.10
68127;BMP180;54931;52.098;21.006;2023-04-21T00:08:28;100664.80;;;9.00
68127;BMP180;54931;52.098;21.006;2023-04-21T00:10:55;100669.80;;;9.00
68127;BMP180;54931;52.098;21.006;2023-04-21T00:13:23;100665.00;;;9.00
68127;BMP180;54931;52.098;21.006;2023-04-21T00:15:51;100665.80;;;8.90
68127;BMP180;54931;52.098;21.006;2023-04-21T00:18:18;100659.40;;;8.90
68127;BMP180;54931;52.098;21.006;2023-04-21T00:20:46;100655.80;;;8.80
68127;BMP180;54931;52.098;21.006;2023-04-21T00:23:14;100657.60;;;8.80
68127;BMP180;54931;52.098;21.006;2023-04-21T00:25:42;100655.40;;;8.80
68127;BMP180;54931;52.098;21.006;2023-04-21T00:28:09;100657.60;;;8.70
68127;BMP180;54931;52.098;21.006;2023-04-21T00:30:37;100658.60;;;8.70
68127;BMP180;54931;52.098;21.006;2023-04-21T00:33:04;100656.00;;;8.70
68127;BMP180;54931;52.098;21.006;2023-04-21T00:35:32;100652.00;;;8.70
68127;BMP180;54931;52.098;21.006;2023-04-21T00:38:00;100655.00;;;8.70
68127;BMP180;54931;52.098;21.006;2023-04-21T00:40:27;100654.00;;;8.70
68127;BMP180;54931;52.098;21.006;2023-04-21T00:42:55;100651.20;;;8.70
68127;BMP180;54931;52.098;21.006;2023-04-21T00:45:22;100656.40;;;8.62
68127;BMP180;54931;52.098;21.006;2023-04-21T00:47:50;100654.40;;;8.60
68127;BMP180;54931;52.098;21.006;2023-04-21T00:50:18;100655.60;;;8.50
68127;BMP180;54931;52.098;21.006;2023-04-21T00:52:46;100657.40;;;8.50
68127;BMP180;54931;52.098;21.006;2023-04-21T00:55:15;100659.60;;;8.40
68127;BMP180;54931;52.098;21.006;2023-04-21T00:57:43;100653.40;;;8.34
68127;BMP180;54931;52.098;21.006;2023-04-21T01:00:12;100651.20;;;8.30
68127;BMP180;54931;52.098;21.006;2023-04-21T01:02:40;100645.80;;;8.22
68127;BMP180;54931;52.098;21.006;2023-04-21T01:05:08;100643.60;;;8.20
68127;BMP180;54931;52.098;21.006;2023-04-21T01:07:36;100647.00;;;8.20
68127;BMP180;54931;52.098;21.006;2023-04-21T01:10:05;100644.20;;;8.10
68127;BMP180;54931;52.098;21.006;2023-04-21T01:20:12;100638.20;;;7.90
68127;BMP180;54931;52.098;21.006;2023-04-21T01:22:41;100633.60;;;7.90
68127;BMP180;54931;52.098;21.006;2023-04-21T01:25:10;100637.80;;;7.90
68127;BMP180;54931;52.098;21.006;2023-04-21T01:27:38;100633.40;;;7.80
68127;BMP180;54931;52.098;21.006;2023-04-21T01:30:07;100637.80;;;7.80
68127;BMP180;54931;52.098;21.006;2023-04-21T01:32:36;100636.00;;;7.70
68127;BMP180;54931;52.098;21.006;2023-04-21T01:35:05;100635.80;;;7.70
68127;BMP180;54931;52.098;21.006;2023-04-21T01:37:34;100640.00;;;7.60
68127;BMP180;54931;52.098;21.006;2023-04-21T01:40:05;100641.00;;;7.60
68127;BMP180;54931;52.098;21.006;2023-04-21T01:42:39;100638.60;;;7.60
68127;BMP180;54931;52.098;21.006;2023-04-21T01:45:07;100633.60;;;7.60
68127;BMP180;54931;52.098;21.006;2023-04-21T01:47:35;100638.20;;;7.50
68127;BMP180;54931;52.098;21.006;2023-04-21T01:50:03;100638.80;;;7.50
68127;BMP180;54931;52.098;21.006;2023-04-21T01:52:31;100639.60;;;7.48
68127;BMP180;54931;52.098;21.006;2023-04-21T01:55:00;100640.80;;;7.40
68127;BMP180;54931;52.098;21.006;2023-04-21T01:57:29;100645.00;;;7.40
68127;BMP180;54931;52.098;21.006;2023-04-21T01:59:56;100636.60;;;7.36
68127;BMP180;54931;52.098;21.006;2023-04-21T02:02:24;100641.40;;;7.30
68127;BMP180;54931;52.098;21.006;2023-04-21T02:04:51;100642.20;;;7.30
68127;BMP180;54931;52.098;21.006;2023-04-21T02:07:19;100638.00;;;7.30
68127;BMP180;54931;52.098;21.006;2023-04-21T02:09:47;100638.40;;;7.20
68127;BMP180;54931;52.098;21.006;2023-04-21T02:12:14;100640.00;;;7.20
68127;BMP180;54931;52.098;21.006;2023-04-21T02:14:42;100635.20;;;7.20
68127;BMP180;54931;52.098;21.006;2023-04-21T02:17:09;100630.20;;;7.20
68127;BMP180;54931;52.098;21.006;2023-04-21T02:19:37;100638.40;;;7.20
68127;BMP180;54931;52.098;21.006;2023-04-21T02:22:05;100632.80;;;7.10
68127;BMP180;54931;52.098;21.006;2023-04-21T02:24:34;100637.20;;;7.10
68127;BMP180;54931;52.098;21.006;2023-04-21T02:27:02;100636.60;;;7.04
68127;BMP180;54931;52.098;21.006;2023-04-21T02:29:30;100637.00;;;7.00
68127;BMP180;54931;52.098;21.006;2023-04-21T02:31:58;100634.20;;;7.00
68127;BMP180;54931;52.098;21.006;2023-04-21T02:34:25;100637.00;;;6.90
68127;BMP180;54931;52.098;21.006;2023-04-21T02:36:53;100630.00;;;6.90
68127;BMP180;54931;52.098;21.006;2023-04-21T02:39:20;100631.20;;;6.86
68127;BMP180;54931;52.098;21.006;2023-04-21T02:41:48;100628.40;;;6.80
68127;BMP180;54931;52.098;21.006;2023-04-21T02:44:16;100629.60;;;6.80
68127;BMP180;54931;52.098;21.006;2023-04-21T02:46:43;100627.60;;;6.70
68127;BMP180;54931;52.098;21.006;2023-04-21T02:49:11;100623.80;;;6.70
68127;BMP180;54931;52.098;21.006;2023-04-21T02:51:38;100620.20;;;6.60
68127;BMP180;54931;52.098;21.006;2023-04-21T02:54:05;100623.00;;;6.60
68127;BMP180;54931;52.098;21.006;2023-04-21T02:56:33;100626.40;;;6.52
68127;BMP180;54931;52.098;21.006;2023-04-21T02:59:00;100624.00;;;6.50
68127;BMP180;54931;52.098;21.006;2023-04-21T03:01:28;100631.40;;;6.40
68127;BMP180;54931;52.098;21.006;2023-04-21T03:03:56;100624.40;;;6.40
68127;BMP180;54931;52.098;21.006;2023-04-21T03:06:23;100625.00;;;6.30
68127;BMP180;54931;52.098;21.006;2023-04-21T03:08:51;100619.40;;;6.30
68127;BMP180;54931;52.098;21.006;2023-04-21T03:11:19;100623.80;;;6.30
68127;BMP180;54931;52.098;21.006;2023-04-21T03:13:46;100619.00;;;6.30
68127;BMP180;54931;52.098;21.006;2023-04-21T03:16:14;100617.80;;;6.30
68127;BMP180;54931;52.098;21.006;2023-04-21T03:18:42;100620.40;;;6.30
68127;BMP180;54931;52.098;21.006;2023-04-21T03:21:09;100618.20;;;6.20
68127;BMP180;54931;52.098;21.006;2023-04-21T03:23:37;100616.60;;;6.20
68127;BMP180;54931;52.098;21.006;2023-04-21T03:26:08;100619.60;;;6.12
68127;BMP180;54931;52.098;21.006;2023-04-21T03:28:35;100618.60;;;6.10
68127;BMP180;54931;52.098;21.006;2023-04-21T03:31:03;100616.60;;;6.00
68127;BMP180;54931;52.098;21.006;2023-04-21T03:33:30;100617.80;;;6.00
68127;BMP180;54931;52.098;21.006;2023-04-21T03:35:58;100616.20;;;6.00
68127;BMP180;54931;52.098;21.006;2023-04-21T03:38:28;100619.60;;;6.00
68127;BMP180;54931;52.098;21.006;2023-04-21T03:40:56;100618.40;;;5.90
68127;BMP180;54931;52.098;21.006;2023-04-21T03:43:23;100619.80;;;5.90
68127;BMP180;54931;52.098;21.006;2023-04-21T03:45:51;100619.20;;;5.90
68127;BMP180;54931;52.098;21.006;2023-04-21T03:48:19;100620.40;;;5.90
68127;BMP180;54931;52.098;21.006;2023-04-21T03:50:46;100621.20;;;5.90
68127;BMP180;54931;52.098;21.006;2023-04-21T03:53:14;100618.40;;;5.90
68127;BMP180;54931;52.098;21.006;2023-04-21T03:55:42;100621.80;;;5.90
68127;BMP180;54931;52.098;21.006;2023-04-21T03:58:09;100625.80;;;5.90
68127;BMP180;54931;52.098;21.006;2023-04-21T04:00:38;100624.80;;;5.90
68127;BMP180;54931;52.098;21.006;2023-04-21T04:03:05;100625.80;;;6.00
68127;BMP180;54931;52.098;21.006;2023-04-21T04:05:37;100627.80;;;6.00
68127;BMP180;54931;52.098;21.006;2023-04-21T04:08:04;100631.60;;;6.10
68127;BMP180;54931;52.098;21.006;2023-04-21T04:10:32;100631.40;;;6.20
68127;BMP180;54931;52.098;21.006;2023-04-21T04:13:00;100635.00;;;6.30
68127;BMP180;54931;52.098;21.006;2023-04-21T04:15:28;100641.80;;;6.40
68127;BMP180;54931;52.098;21.006;2023-04-21T04:17:56;100644.00;;;6.60
68127;BMP180;54931;52.098;21.006;2023-04-21T04:20:24;100646.80;;;6.70
68127;BMP180;54931;52.098;21.006;2023-04-21T04:22:52;100645.40;;;6.80
68127;BMP180;54931;52.098;21.006;2023-04-21T04:25:20;100648.40;;;7.00
68127;BMP180;54931;52.098;21.006;2023-04-21T04:27:47;100653.20;;;7.18
68127;BMP180;54931;52.098;21.006;2023-04-21T04:30:16;100655.00;;;7.30
68127;BMP180;54931;52.098;21.006;2023-04-21T04:32:44;100655.20;;;7.40
68127;BMP180;54931;52.098;21.006;2023-04-21T04:35:11;100658.00;;;7.52
68127;BMP180;54931;52.098;21.006;2023-04-21T04:37:39;100651.20;;;7.60
68127;BMP180;54931;52.098;21.006;2023-04-21T04:40:08;100656.00;;;7.72
68127;BMP180;54931;52.098;21.006;2023-04-21T04:42:39;100653.40;;;7.80
68127;BMP180;54931;52.098;21.006;2023-04-21T04:45:08;100663.80;;;8.00
68127;BMP180;54931;52.098;21.006;2023-04-21T04:47:37;100663.80;;;8.42
68127;BMP180;54931;52.098;21.006;2023-04-21T04:50:05;100660.20;;;8.80
68127;BMP180;54931;52.098;21.006;2023-04-21T04:52:33;100661.40;;;9.20
68127;BMP180;54931;52.098;21.006;2023-04-21T04:55:02;100663.80;;;9.58
68127;BMP180;54931;52.098;21.006;2023-04-21T04:57:30;100667.80;;;9.92
68127;BMP180;54931;52.098;21.006;2023-04-21T04:59:58;100666.60;;;10.22
68127;BMP180;54931;52.098;21.006;2023-04-21T05:02:25;100672.60;;;10.50
68127;BMP180;54931;52.098;21.006;2023-04-21T05:04:53;100666.40;;;10.80
68127;BMP180;54931;52.098;21.006;2023-04-21T05:07:20;100667.60;;;11.10
68127;BMP180;54931;52.098;21.006;2023-04-21T05:09:48;100667.00;;;11.42
68127;BMP180;54931;52.098;21.006;2023-04-21T05:12:15;100660.40;;;11.78
68127;BMP180;54931;52.098;21.006;2023-04-21T05:14:43;100660.20;;;12.00
68127;BMP180;54931;52.098;21.006;2023-04-21T05:17:10;100666.80;;;12.20
68127;BMP180;54931;52.098;21.006;2023-04-21T05:19:38;100665.00;;;12.40
68127;BMP180;54931;52.098;21.006;2023-04-21T05:22:06;100667.00;;;12.56
68127;BMP180;54931;52.098;21.006;2023-04-21T05:24:34;100669.40;;;12.70
68127;BMP180;54931;52.098;21.006;2023-04-21T05:27:02;100671.00;;;12.80
68127;BMP180;54931;52.098;21.006;2023-04-21T05:29:29;100678.20;;;13.16
68127;BMP180;54931;52.098;21.006;2023-04-21T05:31:57;100676.40;;;13.38
68127;BMP180;54931;52.098;21.006;2023-04-21T05:34:25;100678.00;;;13.48
68127;BMP180;54931;52.098;21.006;2023-04-21T05:36:52;100678.40;;;13.72
68127;BMP180;54931;52.098;21.006;2023-04-21T05:39:19;100680.80;;;14.00
68127;BMP180;54931;52.098;21.006;2023-04-21T05:41:47;100680.60;;;14.10
68127;BMP180;54931;52.098;21.006;2023-04-21T05:44:16;100676.20;;;14.20
68127;BMP180;54931;52.098;21.006;2023-04-21T05:46:44;100676.20;;;14.30
68127;BMP180;54931;52.098;21.006;2023-04-21T05:49:12;100673.00;;;14.46
68127;BMP180;54931;52.098;21.006;2023-04-21T05:51:39;100675.40;;;14.60
68127;BMP180;54931;52.098;21.006;2023-04-21T05:54:07;100674.80;;;14.80
68127;BMP180;54931;52.098;21.006;2023-04-21T05:56:35;100679.40;;;14.80
68127;BMP180;54931;52.098;21.006;2023-04-21T05:59:03;100675.40;;;14.88
68127;BMP180;54931;52.098;21.006;2023-04-21T06:01:33;100675.80;;;15.00
68127;BMP180;54931;52.098;21.006;2023-04-21T06:04:00;100677.80;;;15.10
68127;BMP180;54931;52.098;21.006;2023-04-21T06:06:28;100680.00;;;15.20
68127;BMP180;54931;52.098;21.006;2023-04-21T06:08:56;100676.40;;;15.26
68127;BMP180;54931;52.098;21.006;2023-04-21T06:11:24;100674.20;;;15.54
68127;BMP180;54931;52.098;21.006;2023-04-21T06:13:51;100672.40;;;15.80
68127;BMP180;54931;52.098;21.006;2023-04-21T06:16:24;100671.80;;;16.24
68127;BMP180;54931;52.098;21.006;2023-04-21T06:18:52;100671.80;;;16.40
68127;BMP180;54931;52.098;21.006;2023-04-21T06:21:19;100670.40;;;16.50
68127;BMP180;54931;52.098;21.006;2023-04-21T06:23:47;100674.00;;;16.60
68127;BMP180;54931;52.098;21.006;2023-04-21T06:26:14;100667.60;;;16.90
68127;BMP180;54931;52.098;21.006;2023-04-21T06:28:42;100670.00;;;17.10
68127;BMP180;54931;52.098;21.006;2023-04-21T06:31:09;100667.00;;;17.30
68127;BMP180;54931;52.098;21.006;2023-04-21T06:33:41;100670.20;;;17.60
68127;BMP180;54931;52.098;21.006;2023-04-21T06:36:08;100672.40;;;17.60
68127;BMP180;54931;52.098;21.006;2023-04-21T06:38:36;100673.80;;;17.70
68127;BMP180;54931;52.098;21.006;2023-04-21T06:41:06;100669.20;;;17.80
68127;BMP180;54931;52.098;21.006;2023-04-21T06:43:34;100665.20;;;17.82
68127;BMP180;54931;52.098;21.006;2023-04-21T06:46:02;100662.00;;;17.80
68127;BMP180;54931;52.098;21.006;2023-04-21T06:48:30;100669.80;;;17.80
68127;BMP180;54931;52.098;21.006;2023-04-21T06:50:58;100664.00;;;17.80
68127;BMP180;54931;52.098;21.006;2023-04-21T06:53:26;100666.80;;;17.90
68127;BMP180;54931;52.098;21.006;2023-04-21T06:55:53;100664.00;;;17.90
68127;BMP180;54931;52.098;21.006;2023-04-21T06:58:21;100667.00;;;17.94
68127;BMP180;54931;52.098;21.006;2023-04-21T07:00:48;100665.40;;;18.10
68127;BMP180;54931;52.098;21.006;2023-04-21T07:03:15;100669.00;;;18.40
68127;BMP180;54931;52.098;21.006;2023-04-21T07:05:42;100665.40;;;18.40
68127;BMP180;54931;52.098;21.006;2023-04-21T07:08:10;100671.80;;;18.40
68127;BMP180;54931;52.098;21.006;2023-04-21T07:10:37;100668.40;;;18.40
68127;BMP180;54931;52.098;21.006;2023-04-21T07:13:04;100669.60;;;18.40
68127;BMP180;54931;52.098;21.006;2023-04-21T07:15:33;100673.20;;;18.40
68127;BMP180;54931;52.098;21.006;2023-04-21T07:18:00;100671.20;;;18.60
68127;BMP180;54931;52.098;21.006;2023-04-21T07:20:27;100669.60;;;18.80
68127;BMP180;54931;52.098;21.006;2023-04-21T07:22:55;100673.20;;;18.80
68127;BMP180;54931;52.098;21.006;2023-04-21T07:25:22;100670.20;;;18.88
68127;BMP180;54931;52.098;21.006;2023-04-21T07:27:50;100675.00;;;18.90
68127;BMP180;54931;52.098;21.006;2023-04-21T07:30:18;100667.60;;;18.90
68127;BMP180;54931;52.098;21.006;2023-04-21T07:32:45;100676.80;;;19.16
68127;BMP180;54931;52.098;21.006;2023-04-21T07:35:13;100677.60;;;19.40
68127;BMP180;54931;52.098;21.006;2023-04-21T07:37:40;100677.80;;;19.40
68127;BMP180;54931;52.098;21.006;2023-04-21T07:40:08;100681.40;;;19.40
68127;BMP180;54931;52.098;21.006;2023-04-21T07:42:36;100678.40;;;19.50
68127;BMP180;54931;52.098;21.006;2023-04-21T07:45:05;100681.00;;;19.70
68127;BMP180;54931;52.098;21.006;2023-04-21T07:47:33;100675.40;;;19.70
68127;BMP180;54931;52.098;21.006;2023-04-21T07:50:00;100669.40;;;19.50
68127;BMP180;54931;52.098;21.006;2023-04-21T07:52:28;100667.60;;;19.38
68127;BMP180;54931;52.098;21.006;2023-04-21T07:54:56;100669.80;;;19.20
68127;BMP180;54931;52.098;21.006;2023-04-21T07:57:23;100666.40;;;19.10
68127;BMP180;54931;52.098;21.006;2023-04-21T07:59:51;100664.60;;;19.20
68127;BMP180;54931;52.098;21.006;2023-04-21T08:02:19;100658.40;;;19.28
68127;BMP180;54931;52.098;21.006;2023-04-21T08:04:46;100660.40;;;19.50
68127;BMP180;54931;52.098;21.006;2023-04-21T08:07:14;100661.20;;;19.72
68127;BMP180;54931;52.098;21.006;2023-04-21T08:09:42;100662.20;;;19.70
68127;BMP180;54931;52.098;21.006;2023-04-21T08:12:09;100658.40;;;19.60
68127;BMP180;54931;52.098;21.006;2023-04-21T08:14:38;100656.80;;;19.50
68127;BMP180;54931;52.098;21.006;2023-04-21T08:17:06;100653.80;;;19.60
68127;BMP180;54931;52.098;21.006;2023-04-21T08:19:34;100661.60;;;19.72
68127;BMP180;54931;52.098;21.006;2023-04-21T08:22:02;100658.40;;;20.00
68127;BMP180;54931;52.098;21.006;2023-04-21T08:24:29;100661.20;;;20.20
68127;BMP180;54931;52.098;21.006;2023-04-21T08:26:57;100658.00;;;20.20
68127;BMP180;54931;52.098;21.006;2023-04-21T08:29:25;100661.40;;;20.20
68127;BMP180;54931;52.098;21.006;2023-04-21T08:31:52;100657.80;;;20.20
68127;BMP180;54931;52.098;21.006;2023-04-21T08:34:21;100657.60;;;20.20
68127;BMP180;54931;52.098;21.006;2023-04-21T08:36:49;100655.00;;;20.30
68127;BMP180;54931;52.098;21.006;2023-04-21T08:39:17;100649.80;;;20.40
68127;BMP180;54931;52.098;21.006;2023-04-21T08:41:46;100654.60;;;20.48
68127;BMP180;54931;52.098;21.006;2023-04-21T08:44:14;100654.40;;;20.50
68127;BMP180;54931;52.098;21.006;2023-04-21T08:46:44;100652.80;;;20.60
68127;BMP180;54931;52.098;21.006;2023-04-21T08:49:19;100643.80;;;20.60
68127;BMP180;54931;52.098;21.006;2023-04-21T08:51:47;100650.40;;;20.60
68127;BMP180;54931;52.098;21.006;2023-04-21T08:54:16;100649.20;;;20.70
68127;BMP180;54931;52.098;21.006;2023-04-21T08:56:44;100651.00;;;20.60
68127;BMP180;54931;52.098;21.006;2023-04-21T08:59:11;100649.80;;;20.60
68127;BMP180;54931;52.098;21.006;2023-04-21T09:02:16;100640.20;;;20.70
68127;BMP180;54931;52.098;21.006;2023-04-21T09:04:49;100644.80;;;20.80
68127;BMP180;54931;52.098;21.006;2023-04-21T09:07:36;100638.60;;;20.98
68127;BMP180;54931;52.098;21.006;2023-04-21T09:10:08;100637.60;;;21.04
68127;BMP180;54931;52.098;21.006;2023-04-21T09:12:38;100640.20;;;21.00
68127;BMP180;54931;52.098;21.006;2023-04-21T09:15:09;100640.60;;;20.80
68127;BMP180;54931;52.098;21.006;2023-04-21T09:17:38;100639.20;;;20.68
68127;BMP180;54931;52.098;21.006;2023-04-21T09:20:19;100630.40;;;20.70
68127;BMP180;54931;52.098;21.006;2023-04-21T09:22:48;100630.80;;;20.90
68127;BMP180;54931;52.098;21.006;2023-04-21T09:25:21;100627.80;;;21.28
68127;BMP180;54931;52.098;21.006;2023-04-21T09:27:49;100636.20;;;21.30
68127;BMP180;54931;52.098;21.006;2023-04-21T09:30:19;100633.40;;;21.12
68127;BMP180;54931;52.098;21.006;2023-04-21T09:32:48;100630.00;;;21.14
68127;BMP180;54931;52.098;21.006;2023-04-21T09:35:16;100626.80;;;21.24
68127;BMP180;54931;52.098;21.006;2023-04-21T09:37:44;100620.80;;;21.34
68127;BMP180;54931;52.098;21.006;2023-04-21T09:40:13;100619.00;;;21.50
68127;BMP180;54931;52.098;21.006;2023-04-21T09:42:41;100615.40;;;21.48
68127;BMP180;54931;52.098;21.006;2023-04-21T09:45:10;100621.20;;;21.40
68127;BMP180;54931;52.098;21.006;2023-04-21T09:47:40;100622.60;;;21.40
68127;BMP180;54931;52.098;21.006;2023-04-21T09:50:12;100622.40;;;21.30
68127;BMP180;54931;52.098;21.006;2023-04-21T09:52:42;100623.00;;;21.36
68127;BMP180;54931;52.098;21.006;2023-04-21T09:55:12;100618.40;;;21.60
68127;BMP180;54931;52.098;21.006;2023-04-21T09:57:42;100617.60;;;21.90
68127;BMP180;54931;52.098;21.006;2023-04-21T10:00:12;100611.60;;;22.00
68127;BMP180;54931;52.098;21.006;2023-04-21T10:02:48;100608.60;;;22.10
68127;BMP180;54931;52.098;21.006;2023-04-21T10:05:16;100614.20;;;22.28
68127;BMP180;54931;52.098;21.006;2023-04-21T10:07:46;100611.80;;;22.40
68127;BMP180;54931;52.098;21.006;2023-04-21T10:10:34;100599.80;;;22.40
68127;BMP180;54931;52.098;21.006;2023-04-21T10:13:03;100598.40;;;22.30
68127;BMP180;54931;52.098;21.006;2023-04-21T10:15:37;100597.80;;;22.10
68127;BMP180;54931;52.098;21.006;2023-04-21T10:18:22;100596.60;;;21.90
68127;BMP180;54931;52.098;21.006;2023-04-21T10:23:40;100598.00;;;22.28
68127;BMP180;54931;52.098;21.006;2023-04-21T10:26:16;100593.60;;;22.48
68127;BMP180;54931;52.098;21.006;2023-04-21T10:28:51;100585.80;;;22.70
68127;BMP180;54931;52.098;21.006;2023-04-21T10:31:34;100579.40;;;22.90
68127;BMP180;54931;52.098;21.006;2023-04-21T10:39:54;100573.60;;;22.74
68127;BMP180;54931;52.098;21.006;2023-04-21T10:42:27;100571.20;;;22.34
68127;BMP180;54931;52.098;21.006;2023-04-21T10:47:35;100568.40;;;21.96
68127;BMP180;54931;52.098;21.006;2023-04-21T10:50:14;100565.80;;;22.08
68127;BMP180;54931;52.098;21.006;2023-04-21T10:52:52;100559.60;;;22.20
68127;BMP180;54931;52.098;21.006;2023-04-21T10:55:21;100563.40;;;22.46
68127;BMP180;54931;52.098;21.006;2023-04-21T10:57:52;100555.20;;;22.60
68127;BMP180;54931;52.098;21.006;2023-04-21T11:00:22;100561.60;;;22.56
68127;BMP180;54931;52.098;21.006;2023-04-21T11:03:00;100561.60;;;22.60
68127;BMP180;54931;52.098;21.006;2023-04-21T11:05:40;100550.80;;;22.50
68127;BMP180;54931;52.098;21.006;2023-04-21T11:08:12;100542.40;;;22.50
68127;BMP180;54931;52.098;21.006;2023-04-21T11:10:54;100543.60;;;22.60
68127;BMP180;54931;52.098;21.006;2023-04-21T11:13:26;100539.40;;;22.38
68127;BMP180;54931;52.098;21.006;2023-04-21T11:16:06;100538.40;;;21.90
68127;BMP180;54931;52.098;21.006;2023-04-21T11:18:38;100540.00;;;21.60
68127;BMP180;54931;52.098;21.006;2023-04-21T11:21:16;100538.40;;;21.50
68127;BMP180;54931;52.098;21.006;2023-04-21T11:23:53;100526.40;;;21.70
68127;BMP180;54931;52.098;21.006;2023-04-21T11:26:36;100525.00;;;21.84
68127;BMP180;54931;52.098;21.006;2023-04-21T11:29:09;100516.60;;;22.00
68127;BMP180;54931;52.098;21.006;2023-04-21T11:31:42;100522.60;;;22.00
68127;BMP180;54931;52.098;21.006;2023-04-21T11:34:11;100520.40;;;21.70
68127;BMP180;54931;52.098;21.006;2023-04-21T11:36:41;100520.20;;;21.70
68127;BMP180;54931;52.098;21.006;2023-04-21T11:39:13;100514.20;;;21.70
68127;BMP180;54931;52.098;21.006;2023-04-21T11:41:46;100515.60;;;21.88
68127;BMP180;54931;52.098;21.006;2023-04-21T11:44:30;100510.00;;;21.90
68127;BMP180;54931;52.098;21.006;2023-04-21T11:46:58;100504.60;;;21.68
68127;BMP180;54931;52.098;21.006;2023-04-21T11:49:26;100510.40;;;21.50
68127;BMP180;54931;52.098;21.006;2023-04-21T11:51:55;100509.20;;;21.40
68127;BMP180;54931;52.098;21.006;2023-04-21T11:54:23;100504.40;;;21.30
68127;BMP180;54931;52.098;21.006;2023-04-21T11:56:53;100499.20;;;21.40
68127;BMP180;54931;52.098;21.006;2023-04-21T11:59:21;100499.00;;;21.50
68127;BMP180;54931;52.098;21.006;2023-04-21T12:01:53;100497.40;;;21.40
68127;BMP180;54931;52.098;21.006;2023-04-21T12:04:23;100498.20;;;21.38
68127;BMP180;54931;52.098;21.006;2023-04-21T12:07:02;100487.80;;;21.46
68127;BMP180;54931;52.098;21.006;2023-04-21T12:09:30;100487.40;;;21.80
68127;BMP180;54931;52.098;21.006;2023-04-21T12:11:58;100488.00;;;21.72
68127;BMP180;54931;52.098;21.006;2023-04-21T12:14:26;100488.20;;;21.88
68127;BMP180;54931;52.098;21.006;2023-04-21T12:16:56;100485.00;;;21.94
68127;BMP180;54931;52.098;21.006;2023-04-21T12:19:40;100476.80;;;22.00
68127;BMP180;54931;52.098;21.006;2023-04-21T12:22:10;100476.60;;;21.90
68127;BMP180;54931;52.098;21.006;2023-04-21T12:24:40;100468.40;;;21.80
68127;BMP180;54931;52.098;21.006;2023-04-21T12:27:09;100457.80;;;21.62
68127;BMP180;54931;52.098;21.006;2023-04-21T12:29:37;100462.60;;;21.68
68127;BMP180;54931;52.098;21.006;2023-04-21T12:32:07;100458.20;;;21.70
68127;BMP180;54931;52.098;21.006;2023-04-21T12:34:35;100453.00;;;21.62
68127;BMP180;54931;52.098;21.006;2023-04-21T12:37:03;100454.60;;;21.60
68127;BMP180;54931;52.098;21.006;2023-04-21T12:39:31;100458.80;;;21.74
68127;BMP180;54931;52.098;21.006;2023-04-21T12:41:58;100459.60;;;21.80
68127;BMP180;54931;52.098;21.006;2023-04-21T12:44:26;100454.80;;;21.80
68127;BMP180;54931;52.098;21.006;2023-04-21T12:46:54;100455.80;;;21.80
68127;BMP180;54931;52.098;21.006;2023-04-21T12:49:24;100449.40;;;21.74
68127;BMP180;54931;52.098;21.006;2023-04-21T12:51:52;100449.20;;;21.70
68127;BMP180;54931;52.098;21.006;2023-04-21T12:54:19;100455.60;;;21.76
68127;BMP180;54931;52.098;21.006;2023-04-21T12:56:47;100449.40;;;21.60
68127;BMP180;54931;52.098;21.006;2023-04-21T12:59:14;100446.00;;;21.68
68127;BMP180;54931;52.098;21.006;2023-04-21T13:01:42;100444.60;;;21.90
68127;BMP180;54931;52.098;21.006;2023-04-21T13:04:10;100439.40;;;22.08
68127;BMP180;54931;52.098;21.006;2023-04-21T13:06:38;100434.60;;;22.26
68127;BMP180;54931;52.098;21.006;2023-04-21T13:09:05;100431.00;;;22.48
68127;BMP180;54931;52.098;21.006;2023-04-21T13:11:33;100431.80;;;22.68
68127;BMP180;54931;52.098;21.006;2023-04-21T13:14:01;100432.40;;;22.92
68127;BMP180;54931;52.098;21.006;2023-04-21T13:16:30;100433.80;;;23.20
68127;BMP180;54931;52.098;21.006;2023-04-21T13:18:58;100431.60;;;23.40
68127;BMP180;54931;52.098;21.006;2023-04-21T13:21:25;100429.00;;;23.36
68127;BMP180;54931;52.098;21.006;2023-04-21T13:23:54;100430.80;;;23.40
68127;BMP180;54931;52.098;21.006;2023-04-21T13:26:23;100423.40;;;23.60
68127;BMP180;54931;52.098;21.006;2023-04-21T13:28:51;100424.00;;;23.60
68127;BMP180;54931;52.098;21.006;2023-04-21T13:31:19;100423.80;;;23.50
68127;BMP180;54931;52.098;21.006;2023-04-21T13:33:47;100422.00;;;23.38
68127;BMP180;54931;52.098;21.006;2023-04-21T13:36:14;100416.40;;;23.42
68127;BMP180;54931;52.098;21.006;2023-04-21T13:38:42;100414.00;;;23.50
68127;BMP180;54931;52.098;21.006;2023-04-21T13:41:10;100407.60;;;23.70
68127;BMP180;54931;52.098;21.006;2023-04-21T13:43:38;100406.00;;;24.08
68127;BMP180;54931;52.098;21.006;2023-04-21T13:46:05;100402.60;;;23.90
68127;BMP180;54931;52.098;21.006;2023-04-21T13:48:33;100400.80;;;23.60
68127;BMP180;54931;52.098;21.006;2023-04-21T13:51:00;100397.00;;;23.60
68127;BMP180;54931;52.098;21.006;2023-04-21T13:53:27;100397.80;;;23.60
68127;BMP180;54931;52.098;21.006;2023-04-21T13:55:55;100391.40;;;23.30
68127;BMP180;54931;52.098;21.006;2023-04-21T13:58:24;100390.20;;;23.10
68127;BMP180;54931;52.098;21.006;2023-04-21T14:00:51;100385.20;;;23.14
68127;BMP180;54931;52.098;21.006;2023-04-21T14:03:18;100384.20;;;23.20
68127;BMP180;54931;52.098;21.006;2023-04-21T14:05:46;100388.20;;;23.10
68127;BMP180;54931;52.098;21.006;2023-04-21T14:08:14;100379.00;;;23.10
68127;BMP180;54931;52.098;21.006;2023-04-21T14:10:42;100379.00;;;22.80
68127;BMP180;54931;52.098;21.006;2023-04-21T14:13:09;100380.40;;;22.60
68127;BMP180;54931;52.098;21.006;2023-04-21T14:15:37;100373.80;;;22.70
68127;BMP180;54931;52.098;21.006;2023-04-21T14:18:05;100368.00;;;22.90